createdAt,value
2022-09-22T00:01:32.604Z,1.00
2022-09-22T00:04:03.643Z,1.17
2022-09-22T00:06:40.671Z,1.10
2022-09-22T00:09:11.915Z,1.23
2022-09-22T00:11:45.861Z,1.40
2022-09-22T00:14:16.633Z,1.30
2022-09-22T00:16:53.986Z,1.67
2022-09-22T00:19:26.745Z,1.33
2022-09-22T00:21:56.911Z,1.70
2022-09-22T00:24:24.430Z,1.40
2022-09-22T00:26:57.283Z,1.40
2022-09-22T00:29:27.347Z,1.60
2022-09-22T00:31:54.883Z,1.80
2022-09-22T00:34:26.877Z,1.63
2022-09-22T00:36:54.025Z,1.57
2022-09-22T00:39:20.960Z,1.70
2022-09-22T00:41:50.955Z,1.70
2022-09-22T00:44:30.668Z,1.40
2022-09-22T00:47:17.527Z,1.50
2022-09-22T00:49:57.397Z,1.10
2022-09-22T00:52:28.923Z,1.20
2022-09-22T00:55:00.838Z,1.27
2022-09-22T00:57:35.057Z,1.23
2022-09-22T01:00:04.826Z,1.77
2022-09-22T01:02:32.198Z,1.20
2022-09-22T01:04:59.468Z,1.63
2022-09-22T01:07:32.604Z,1.40
2022-09-22T01:10:00.571Z,1.40
2022-09-22T01:12:32.562Z,1.37
2022-09-22T01:15:18.990Z,1.40
2022-09-22T01:18:19.133Z,1.20
2022-09-22T01:20:49.211Z,1.20
2022-09-22T01:23:48.944Z,1.20
2022-09-22T01:26:42.538Z,1.00
2022-09-22T01:29:28.180Z,1.30
2022-09-22T01:32:06.645Z,0.90
2022-09-22T01:35:17.186Z,1.03
2022-09-22T01:38:08.122Z,1.10
2022-09-22T01:40:42.686Z,1.20
2022-09-22T01:43:15.645Z,1.27
2022-09-22T01:45:46.665Z,1.33
2022-09-22T01:48:28.012Z,1.00
2022-09-22T01:51:06.992Z,1.00
2022-09-22T01:53:42.595Z,1.30
2022-09-22T01:56:13.900Z,1.20
2022-09-22T01:58:48.564Z,1.40
2022-09-22T02:01:19.610Z,1.00
2022-09-22T02:04:09.464Z,1.30
2022-09-22T02:06:43.273Z,1.30
2022-09-22T02:09:15.512Z,1.30
2022-09-22T02:11:42.884Z,1.20
2022-09-22T02:14:11.929Z,1.50
2022-09-22T02:16:38.774Z,1.47
2022-09-22T02:19:19.550Z,1.53
2022-09-22T02:21:47.937Z,1.47
2022-09-22T02:24:34.466Z,1.27
2022-09-22T02:27:36.573Z,1.33
2022-09-22T02:30:09.485Z,1.30
2022-09-22T02:32:41.166Z,1.17
2022-09-22T02:35:09.898Z,1.30
2022-09-22T02:38:15.869Z,1.10
2022-09-22T02:41:01.373Z,1.33
2022-09-22T02:43:40.883Z,1.50
2022-09-22T02:46:27.545Z,1.60
2022-09-22T02:49:02.390Z,1.63
2022-09-22T02:51:33.111Z,1.40
2022-09-22T02:54:02.066Z,1.23
2022-09-22T02:56:29.051Z,1.60
2022-09-22T02:58:58.425Z,1.47
2022-09-22T03:01:28.319Z,1.40
2022-09-22T03:03:55.263Z,1.30
2022-09-22T03:06:22.033Z,1.40
2022-09-22T03:08:54.504Z,1.30
2022-09-22T03:11:21.245Z,1.50
2022-09-22T03:13:47.956Z,1.40
2022-09-22T03:16:14.856Z,1.30
2022-09-22T03:18:44.521Z,1.60
2022-09-22T03:21:17.197Z,1.20
2022-09-22T03:23:43.935Z,1.47
2022-09-22T03:26:10.607Z,1.30
2022-09-22T03:28:37.273Z,1.23
2022-09-22T03:31:06.859Z,1.43
2022-09-22T03:33:33.573Z,1.20
2022-09-22T03:36:04.407Z,1.10
2022-09-22T03:38:31.928Z,1.20
2022-09-22T03:41:01.307Z,1.20
2022-09-22T03:43:28.111Z,1.40
2022-09-22T03:45:59.269Z,1.17
2022-09-22T03:48:28.750Z,1.23
2022-09-22T03:50:56.416Z,1.43
2022-09-22T03:53:24.945Z,1.30
2022-09-22T03:55:52.113Z,1.63
2022-09-22T03:58:21.701Z,1.47
2022-09-22T04:00:49.856Z,1.20
2022-09-22T04:03:19.405Z,1.70
2022-09-22T04:05:54.355Z,2.10
2022-09-22T04:08:24.288Z,1.97
2022-09-22T04:10:54.060Z,1.57
2022-09-22T04:13:22.529Z,1.30
2022-09-22T04:15:51.985Z,1.10
2022-09-22T04:18:18.681Z,1.13
2022-09-22T04:20:46.275Z,1.40
2022-09-22T04:23:16.050Z,1.30
2022-09-22T04:25:45.476Z,1.43
2022-09-22T04:28:12.190Z,1.23
2022-09-22T04:30:39.665Z,1.20
2022-09-22T04:33:08.298Z,1.80
2022-09-22T04:35:35.484Z,1.10
2022-09-22T04:38:02.178Z,1.20
2022-09-22T04:40:30.443Z,1.40
2022-09-22T04:42:57.842Z,1.73
2022-09-22T04:45:25.127Z,1.93
2022-09-22T04:47:53.899Z,1.80
2022-09-22T04:50:23.982Z,2.20
2022-09-22T04:52:53.880Z,2.00
2022-09-22T04:55:24.005Z,1.90
2022-09-22T04:57:53.984Z,1.97
2022-09-22T05:00:22.444Z,2.20
2022-09-22T05:02:50.212Z,2.30
2022-09-22T05:05:17.457Z,2.10
2022-09-22T05:07:56.447Z,1.80
2022-09-22T05:10:25.388Z,1.60
2022-09-22T05:12:55.536Z,1.70
2022-09-22T05:15:25.304Z,1.70
2022-09-22T05:17:55.750Z,1.93
2022-09-22T05:20:22.725Z,2.33
2022-09-22T05:22:50.398Z,1.90
2022-09-22T05:25:18.946Z,1.83
2022-09-22T05:27:51.702Z,1.90
2022-09-22T05:30:21.541Z,1.87
2022-09-22T05:32:52.557Z,1.80
2022-09-22T05:35:24.002Z,1.83
2022-09-22T05:37:57.482Z,2.10
2022-09-22T05:40:29.115Z,2.00
2022-09-22T05:42:55.895Z,2.60
2022-09-22T05:45:22.602Z,1.93
2022-09-22T05:47:50.768Z,2.27
2022-09-22T05:50:21.839Z,2.70
2022-09-22T05:52:52.971Z,2.20
2022-09-22T05:55:20.505Z,2.20
2022-09-22T05:57:47.448Z,1.70
2022-09-22T06:00:18.118Z,1.67
2022-09-22T06:02:48.039Z,1.53
2022-09-22T06:05:19.244Z,1.10
2022-09-22T06:07:55.288Z,1.50
2022-09-22T06:10:22.778Z,1.40
2022-09-22T06:12:54.292Z,1.27
2022-09-22T06:15:20.963Z,1.20
2022-09-22T06:17:52.468Z,1.30
2022-09-22T06:20:19.117Z,1.20
2022-09-22T06:22:45.866Z,1.50
2022-09-22T06:25:13.834Z,1.10
2022-09-22T06:27:41.956Z,1.37
2022-09-22T06:30:12.250Z,1.37
2022-09-22T06:32:39.523Z,1.40
2022-09-22T06:35:07.449Z,1.83
2022-09-22T06:37:35.819Z,1.67
2022-09-22T06:40:02.571Z,1.70
2022-09-22T06:42:30.033Z,2.03
2022-09-22T06:44:57.559Z,1.83
2022-09-22T06:47:25.183Z,2.37
2022-09-22T06:49:54.844Z,2.57
2022-09-22T06:52:27.626Z,2.93
2022-09-22T06:54:56.245Z,2.77
2022-09-22T06:57:22.940Z,2.63
2022-09-22T06:59:51.272Z,2.80
2022-09-22T07:02:18.575Z,2.63
2022-09-22T07:04:46.626Z,2.90
2022-09-22T07:07:13.297Z,2.50
2022-09-22T07:09:39.960Z,2.40
2022-09-22T07:12:08.097Z,2.33
2022-09-22T07:14:35.689Z,2.30
2022-09-22T07:17:02.486Z,2.15
2022-09-22T07:19:36.512Z,2.30
2022-09-22T07:22:03.559Z,2.25
2022-09-22T07:24:35.846Z,2.40
2022-09-22T07:27:04.990Z,2.20
2022-09-22T07:29:32.140Z,2.25
2022-09-22T07:32:00.220Z,2.10
2022-09-22T07:34:27.119Z,2.13
2022-09-22T07:36:54.993Z,1.40
2022-09-22T07:39:21.824Z,1.50
2022-09-22T07:41:48.506Z,1.23
2022-09-22T07:44:40.896Z,1.27
2022-09-22T07:47:10.335Z,1.20
2022-09-22T07:49:37.808Z,1.10
2022-09-22T07:52:09.546Z,1.00
2022-09-22T07:54:37.232Z,2.90
2022-09-22T07:57:11.020Z,1.48
2022-09-22T07:59:41.216Z,2.10
2022-09-22T08:02:09.092Z,2.20
2022-09-22T08:04:35.981Z,1.55
2022-09-22T08:07:05.964Z,2.15
2022-09-22T08:09:33.739Z,2.80
2022-09-22T08:12:02.719Z,2.22
2022-09-22T08:14:30.317Z,1.92
2022-09-22T08:16:57.286Z,1.60
2022-09-22T08:19:24.109Z,1.45
2022-09-22T08:21:54.625Z,1.60
2022-09-22T08:24:22.869Z,1.60
2022-09-22T08:26:53.353Z,1.48
2022-09-22T08:29:21.872Z,1.30
2022-09-22T08:31:49.637Z,1.40
2022-09-22T08:34:17.924Z,1.73
2022-09-22T08:36:49.183Z,1.70
2022-09-22T08:39:20.750Z,1.67
2022-09-22T08:42:09.184Z,1.38
2022-09-22T08:44:52.210Z,1.50
2022-09-22T08:47:45.263Z,2.55
2022-09-22T08:50:44.264Z,1.50
2022-09-22T08:53:16.338Z,1.83
2022-09-22T08:55:49.286Z,1.50
2022-09-22T08:58:37.332Z,1.13
2022-09-22T09:01:25.238Z,0.60
2022-09-22T09:04:38.993Z,0.70
2022-09-22T09:07:14.572Z,0.93
2022-09-22T09:10:15.454Z,0.93
2022-09-22T09:12:42.347Z,0.90
2022-09-22T09:15:26.517Z,0.70
2022-09-22T09:17:58.962Z,0.70
2022-09-22T09:20:42.138Z,0.88
2022-09-22T09:23:18.115Z,0.70
2022-09-22T09:25:56.001Z,0.93
2022-09-22T09:28:44.420Z,0.60
2022-09-22T09:31:31.614Z,0.80
2022-09-22T09:34:05.770Z,0.90
2022-09-22T09:36:37.863Z,0.80
2022-09-22T09:39:17.656Z,0.82
2022-09-22T09:41:49.189Z,0.70
2022-09-22T09:44:39.927Z,0.60
2022-09-22T09:47:28.275Z,0.60
2022-09-22T09:49:57.904Z,0.73
2022-09-22T09:52:29.371Z,0.80
2022-09-22T09:54:56.314Z,0.77
2022-09-22T09:57:27.545Z,0.80
2022-09-22T10:00:31.903Z,0.60
2022-09-22T10:03:23.867Z,0.93
2022-09-22T10:06:10.970Z,0.68
2022-09-22T10:08:49.302Z,0.70
2022-09-22T10:11:16.305Z,0.60
2022-09-22T10:13:45.113Z,0.75
2022-09-22T10:16:33.374Z,0.70
2022-09-22T10:19:17.398Z,0.75
2022-09-22T10:21:44.080Z,0.90
2022-09-22T10:24:31.513Z,1.00
2022-09-22T10:27:00.400Z,0.90
2022-09-22T10:29:32.854Z,0.80
2022-09-22T10:32:05.228Z,0.63
2022-09-22T10:34:43.630Z,0.60
2022-09-22T10:37:15.411Z,0.70
2022-09-22T10:39:54.463Z,0.77
2022-09-22T10:42:36.566Z,0.60
2022-09-22T10:45:10.346Z,0.75
2022-09-22T10:48:10.597Z,0.77
2022-09-22T10:50:47.503Z,0.70
2022-09-22T10:53:18.528Z,0.60
2022-09-22T10:55:52.895Z,0.57
2022-09-22T10:58:27.999Z,0.50
2022-09-22T11:01:13.259Z,0.60
2022-09-22T11:04:14.970Z,0.40
2022-09-22T11:07:21.406Z,0.47
2022-09-22T11:10:21.943Z,0.47
2022-09-22T11:13:10.739Z,0.57
2022-09-22T11:15:56.432Z,0.60
2022-09-22T11:18:39.851Z,0.68
2022-09-22T11:21:18.319Z,0.60
2022-09-22T11:24:12.713Z,0.60
2022-09-22T11:26:59.770Z,0.50
2022-09-22T11:29:57.542Z,0.50
2022-09-22T11:32:37.422Z,0.63
2022-09-22T11:35:24.531Z,0.45
2022-09-22T11:38:13.139Z,0.57
2022-09-22T11:40:51.938Z,0.50
2022-09-22T11:43:46.513Z,0.47
2022-09-22T11:46:40.631Z,0.45
2022-09-22T11:49:24.947Z,0.50
2022-09-22T11:52:25.228Z,1.00
2022-09-22T11:55:02.345Z,0.70
2022-09-22T11:57:34.642Z,0.60
2022-09-22T12:00:19.620Z,0.70
2022-09-22T12:03:01.904Z,0.40
2022-09-22T12:05:32.260Z,0.60
2022-09-22T12:08:07.470Z,0.30
2022-09-22T12:10:42.251Z,0.50
2022-09-22T12:13:23.019Z,0.50
2022-09-22T12:16:13.708Z,0.50
2022-09-22T12:19:00.711Z,0.77
2022-09-22T12:21:36.145Z,0.60
2022-09-22T12:24:09.708Z,0.60
2022-09-22T12:26:39.705Z,0.70
2022-09-22T12:29:16.182Z,0.60
2022-09-22T12:31:47.289Z,0.50
2022-09-22T12:34:31.342Z,0.50
2022-09-22T12:37:21.488Z,0.50
2022-09-22T12:39:51.130Z,0.60
2022-09-22T12:42:37.716Z,0.52
2022-09-22T12:45:20.141Z,0.50
2022-09-22T12:47:53.291Z,0.65
2022-09-22T12:50:23.462Z,0.50
2022-09-22T12:52:51.243Z,0.67
2022-09-22T12:55:30.307Z,0.70
2022-09-22T12:58:02.402Z,0.67
2022-09-22T13:00:41.117Z,0.70
2022-09-22T13:03:26.418Z,0.60
2022-09-22T13:06:00.866Z,0.50
2022-09-22T13:08:31.048Z,0.50
2022-09-22T13:11:05.603Z,0.40
2022-09-22T13:13:36.773Z,0.50
2022-09-22T13:16:24.326Z,0.60
2022-09-22T13:18:52.073Z,0.60
2022-09-22T13:21:22.123Z,0.50
2022-09-22T13:24:02.681Z,0.50
2022-09-22T13:26:41.019Z,0.40
2022-09-22T13:29:21.052Z,0.60
2022-09-22T13:31:48.306Z,0.50
2022-09-22T13:34:35.721Z,0.50
2022-09-22T13:37:10.782Z,0.60
2022-09-22T13:39:46.887Z,0.40
2022-09-22T13:42:24.891Z,0.50
2022-09-22T13:45:24.184Z,0.47
2022-09-22T13:48:02.673Z,0.50
2022-09-22T13:50:48.372Z,0.60
2022-09-22T13:53:19.658Z,0.50
2022-09-22T13:55:51.678Z,0.60
2022-09-22T13:58:29.550Z,0.50
2022-09-22T14:01:13.066Z,0.60
2022-09-22T14:03:44.851Z,0.50
2022-09-22T14:06:33.556Z,0.60
2022-09-22T14:09:03.449Z,0.50
2022-09-22T14:11:32.247Z,0.47
2022-09-22T14:14:02.684Z,0.53
2022-09-22T14:16:32.371Z,0.53
2022-09-22T14:19:16.540Z,0.60
2022-09-22T14:21:55.972Z,0.40
2022-09-22T14:24:23.325Z,0.60
2022-09-22T14:26:54.801Z,0.60
2022-09-22T14:29:31.149Z,0.50
2022-09-22T14:32:11.818Z,0.50
2022-09-22T14:34:40.613Z,0.60
2022-09-22T14:37:34.348Z,0.80
2022-09-22T14:40:04.711Z,0.50
2022-09-22T14:42:34.335Z,0.50
2022-09-22T14:45:10.519Z,0.60
2022-09-22T14:47:42.372Z,0.47
2022-09-22T14:50:21.196Z,0.50
2022-09-22T14:52:58.336Z,0.70
2022-09-22T14:55:39.897Z,0.50
2022-09-22T14:58:14.933Z,0.70
2022-09-22T15:01:15.945Z,0.60
2022-09-22T15:03:56.365Z,0.60
2022-09-22T15:06:23.408Z,0.53
2022-09-22T15:08:53.213Z,0.57
2022-09-22T15:11:20.070Z,0.60
2022-09-22T15:13:51.289Z,0.73
2022-09-22T15:16:33.708Z,0.60
2022-09-22T15:19:06.022Z,0.50
2022-09-22T15:21:37.166Z,0.60
2022-09-22T15:24:07.529Z,0.63
2022-09-22T15:26:35.194Z,0.70
2022-09-22T15:29:04.818Z,0.70
2022-09-22T15:31:32.340Z,0.60
2022-09-22T15:34:03.058Z,0.90
2022-09-22T15:36:33.882Z,0.80
2022-09-22T15:39:21.906Z,0.70
2022-09-22T15:41:50.882Z,0.60
2022-09-22T15:44:17.785Z,0.70
2022-09-22T15:46:48.481Z,0.67
2022-09-22T15:49:20.988Z,0.70
2022-09-22T15:51:51.600Z,0.50
2022-09-22T15:54:21.764Z,0.80
2022-09-22T15:56:52.441Z,0.60
2022-09-22T15:59:23.896Z,0.60
2022-09-22T16:01:51.946Z,0.70
2022-09-22T16:04:20.060Z,0.63
2022-09-22T16:06:55.114Z,0.67
2022-09-22T16:09:22.081Z,0.50
2022-09-22T16:11:51.360Z,1.00
2022-09-22T16:14:18.620Z,0.70
2022-09-22T16:16:45.550Z,0.60
2022-09-22T16:19:13.882Z,0.70
2022-09-22T16:21:49.163Z,0.70
2022-09-22T16:24:16.173Z,0.80
2022-09-22T16:26:45.361Z,0.70
2022-09-22T16:29:12.071Z,0.80
2022-09-22T16:31:39.150Z,0.67
2022-09-22T16:34:09.668Z,0.70
2022-09-22T16:36:39.839Z,0.70
2022-09-22T16:39:06.558Z,0.70
2022-09-22T16:41:38.812Z,0.67
2022-09-22T16:44:06.304Z,0.83
2022-09-22T16:46:39.057Z,0.90
2022-09-22T16:49:12.867Z,0.90
2022-09-22T16:51:48.735Z,0.73
2022-09-22T16:54:16.566Z,0.70
2022-09-22T16:56:46.257Z,0.53
2022-09-22T16:59:18.350Z,0.90
2022-09-22T17:01:48.403Z,0.63
2022-09-22T17:04:19.027Z,0.80
2022-09-22T17:06:46.910Z,0.70
2022-09-22T17:09:16.745Z,0.70
2022-09-22T17:11:45.626Z,0.80
2022-09-22T17:14:15.407Z,0.60
2022-09-22T17:16:48.012Z,0.80
2022-09-22T17:19:20.712Z,0.80
2022-09-22T17:21:50.678Z,0.80
2022-09-22T17:24:19.241Z,0.83
2022-09-22T17:26:50.827Z,1.17
2022-09-22T17:29:24.809Z,1.00
2022-09-22T17:31:58.344Z,0.70
2022-09-22T17:34:28.361Z,1.00
2022-09-22T17:36:57.140Z,1.80
2022-09-22T17:39:28.691Z,1.67
2022-09-22T17:41:55.694Z,2.03
2022-09-22T17:44:24.044Z,2.47
2022-09-22T17:47:10.912Z,2.90
2022-09-22T17:49:59.428Z,3.27
2022-09-22T17:52:29.120Z,4.40
2022-09-22T17:55:11.635Z,4.53
2022-09-22T17:57:43.274Z,6.33
2022-09-22T18:00:15.305Z,9.87
2022-09-22T18:02:45.078Z,15.47
2022-09-22T18:05:14.728Z,13.40
2022-09-22T18:07:42.012Z,16.67
2022-09-22T18:10:12.107Z,12.90
2022-09-22T18:12:39.463Z,7.53
2022-09-22T18:15:07.327Z,6.77
2022-09-22T18:17:42.726Z,7.90
2022-09-22T18:20:15.073Z,7.50
2022-09-22T18:22:48.570Z,8.00
2022-09-22T18:25:28.857Z,7.60
2022-09-22T18:28:00.853Z,7.87
2022-09-22T18:30:32.191Z,7.03
2022-09-22T18:33:00.460Z,6.10
2022-09-22T18:35:28.830Z,4.83
2022-09-22T18:37:57.200Z,3.97
2022-09-22T18:40:25.083Z,3.90
2022-09-22T18:42:57.460Z,3.67
2022-09-22T18:45:25.704Z,3.23
2022-09-22T18:47:54.745Z,3.47
2022-09-22T18:50:36.195Z,3.40
2022-09-22T18:53:13.758Z,2.83
2022-09-22T18:55:42.307Z,3.00
2022-09-22T18:58:09.874Z,2.83
2022-09-22T19:00:41.961Z,2.67
2022-09-22T19:03:08.703Z,2.83
2022-09-22T19:05:38.898Z,2.53
2022-09-22T19:08:11.952Z,2.27
2022-09-22T19:10:39.516Z,2.50
2022-09-22T19:13:18.308Z,2.10
2022-09-22T19:15:57.358Z,2.20
2022-09-22T19:18:27.688Z,2.30
2022-09-22T19:21:04.475Z,1.93
2022-09-22T19:23:32.433Z,1.70
2022-09-22T19:26:01.209Z,1.77
2022-09-22T19:28:31.473Z,1.80
2022-09-22T19:30:58.350Z,1.60
2022-09-22T19:33:25.639Z,1.70
2022-09-22T19:35:53.090Z,1.80
2022-09-22T19:38:20.425Z,2.20
2022-09-22T19:40:56.655Z,1.80
2022-09-22T19:43:24.521Z,1.70
2022-09-22T19:45:55.066Z,2.20
2022-09-22T19:48:25.862Z,2.20
2022-09-22T19:50:54.721Z,2.20
2022-09-22T19:53:24.105Z,2.83
2022-09-22T19:55:51.830Z,3.13
2022-09-22T19:58:23.462Z,3.03
2022-09-22T20:00:58.767Z,2.70
2022-09-22T20:03:27.644Z,3.43
2022-09-22T20:05:56.010Z,2.90
2022-09-22T20:08:25.922Z,2.80
2022-09-22T20:11:22.760Z,3.00
2022-09-22T20:14:05.071Z,2.80
2022-09-22T20:16:35.019Z,3.17
2022-09-22T20:19:17.500Z,3.10
2022-09-22T20:21:54.159Z,3.10
2022-09-22T20:24:23.342Z,3.27
2022-09-22T20:26:50.992Z,5.50
2022-09-22T20:29:26.342Z,5.10
2022-09-22T20:31:54.631Z,5.50
2022-09-22T20:34:25.230Z,4.60
2022-09-22T20:36:53.713Z,4.63
2022-09-22T20:39:22.269Z,4.10
2022-09-22T20:41:48.908Z,4.40
2022-09-22T20:44:16.921Z,3.93
2022-09-22T20:46:48.458Z,3.80
2022-09-22T20:49:24.899Z,3.33
2022-09-22T20:51:52.578Z,3.13
2022-09-22T20:54:24.295Z,3.00
2022-09-22T20:56:51.005Z,3.33
2022-09-22T20:59:24.708Z,2.70
2022-09-22T21:02:00.539Z,3.13
2022-09-22T21:04:30.924Z,2.80
2022-09-22T21:07:00.375Z,2.10
2022-09-22T21:09:50.042Z,2.80
2022-09-22T21:12:28.592Z,2.97
2022-09-22T21:15:03.464Z,3.10
2022-09-22T21:17:35.879Z,5.30
2022-09-22T21:20:03.419Z,4.27
2022-09-22T21:22:31.001Z,4.43
2022-09-22T21:24:59.397Z,4.17
2022-09-22T21:27:26.358Z,3.70
2022-09-22T21:29:54.533Z,2.70
2022-09-22T21:32:25.064Z,2.70
2022-09-22T21:35:00.181Z,2.30
2022-09-22T21:37:28.568Z,2.70
2022-09-22T21:39:57.841Z,2.60
2022-09-22T21:42:31.290Z,3.17
2022-09-22T21:45:01.098Z,3.90
2022-09-22T21:47:29.523Z,3.70
2022-09-22T21:49:56.213Z,3.90
2022-09-22T21:52:25.499Z,3.37
2022-09-22T21:54:54.119Z,4.30
2022-09-22T21:57:30.612Z,5.37
2022-09-22T21:59:59.817Z,4.70
2022-09-22T22:02:26.733Z,4.73
2022-09-22T22:04:56.072Z,4.30
2022-09-22T22:07:25.373Z,3.17
2022-09-22T22:09:54.420Z,3.80
2022-09-22T22:12:26.235Z,4.10
2022-09-22T22:14:58.803Z,4.07
2022-09-22T22:17:28.426Z,3.53
2022-09-22T22:19:58.758Z,3.30
2022-09-22T22:22:34.295Z,3.23
2022-09-22T22:25:05.948Z,3.10
2022-09-22T22:27:34.467Z,3.30
2022-09-22T22:30:03.877Z,2.90
2022-09-22T22:32:41.824Z,2.93
2022-09-22T22:35:12.842Z,3.00
2022-09-22T22:37:41.059Z,3.17
2022-09-22T22:40:11.583Z,2.90
2022-09-22T22:42:50.810Z,3.20
2022-09-22T22:45:21.824Z,3.10
2022-09-22T22:47:52.577Z,2.87
2022-09-22T22:50:19.223Z,2.80
2022-09-22T22:52:46.059Z,2.90
2022-09-22T22:55:16.984Z,2.90
2022-09-22T22:57:50.995Z,2.67
2022-09-22T23:00:30.742Z,2.50
2022-09-22T23:02:57.614Z,2.60
2022-09-22T23:05:29.647Z,2.70
2022-09-22T23:07:58.705Z,2.50
2022-09-22T23:10:26.885Z,2.80
2022-09-22T23:13:04.857Z,2.40
2022-09-22T23:15:31.588Z,2.70
2022-09-22T23:18:00.878Z,2.77
2022-09-22T23:20:30.229Z,2.57
2022-09-22T23:22:57.543Z,2.70
2022-09-22T23:25:25.794Z,2.83
2022-09-22T23:27:58.398Z,2.80
2022-09-22T23:30:28.740Z,2.63
2022-09-22T23:32:57.451Z,2.63
2022-09-22T23:35:24.544Z,2.93
2022-09-22T23:37:55.540Z,2.60
2022-09-22T23:40:23.577Z,2.50
2022-09-22T23:42:50.303Z,2.40
2022-09-22T23:45:19.075Z,2.20
2022-09-22T23:47:47.438Z,2.90
2022-09-22T23:50:15.000Z,2.87
2022-09-22T23:52:41.647Z,2.70
2022-09-22T23:55:10.903Z,2.63
2022-09-22T23:57:39.406Z,2.53
